sensor_id;sensor_type;location;lat;lon;timestamp;temperature;humidity
3868;DHT22;1949;48.152;11.528;2022-11-15T00:02:03;13.80;46.50
3868;DHT22;1949;48.152;11.528;2022-11-15T00:04:36;13.70;46.50
3868;DHT22;1949;48.152;11.528;2022-11-15T00:07:06;13.80;46.50
3868;DHT22;1949;48.152;11.528;2022-11-15T00:09:34;13.70;46.50
3868;DHT22;1949;48.152;11.528;2022-11-15T00:12:00;13.70;46.50
3868;DHT22;1949;48.152;11.528;2022-11-15T00:14:25;13.70;46.50
3868;DHT22;1949;48.152;11.528;2022-11-15T00:16:51;13.70;46.50
3868;DHT22;1949;48.152;11.528;2022-11-15T00:19:17;13.70;46.50
3868;DHT22;1949;48.152;11.528;2022-11-15T00:21:42;13.70;46.40
3868;DHT22;1949;48.152;11.528;2022-11-15T00:24:09;13.70;46.30
3868;DHT22;1949;48.152;11.528;2022-11-15T00:26:35;13.70;46.40
3868;DHT22;1949;48.152;11.528;2022-11-15T00:29:02;13.70;46.40
3868;DHT22;1949;48.152;11.528;2022-11-15T00:31:28;13.70;46.30
3868;DHT22;1949;48.152;11.528;2022-11-15T00:33:55;13.70;46.30
3868;DHT22;1949;48.152;11.528;2022-11-15T00:36:20;13.70;46.30
3868;DHT22;1949;48.152;11.528;2022-11-15T00:38:46;13.70;46.30
3868;DHT22;1949;48.152;11.528;2022-11-15T00:41:12;13.70;46.30
3868;DHT22;1949;48.152;11.528;2022-11-15T00:43:37;13.70;46.30
3868;DHT22;1949;48.152;11.528;2022-11-15T00:46:15;13.70;46.30
3868;DHT22;1949;48.152;11.528;2022-11-15T00:48:41;13.70;46.20
3868;DHT22;1949;48.152;11.528;2022-11-15T00:51:14;13.70;46.30
3868;DHT22;1949;48.152;11.528;2022-11-15T00:53:42;13.70;46.20
3868;DHT22;1949;48.152;11.528;2022-11-15T00:56:07;13.70;46.20
3868;DHT22;1949;48.152;11.528;2022-11-15T00:58:33;13.70;46.20
3868;DHT22;1949;48.152;11.528;2022-11-15T01:01:12;13.70;46.20
3868;DHT22;1949;48.152;11.528;2022-11-15T01:03:42;13.70;46.10
3868;DHT22;1949;48.152;11.528;2022-11-15T01:06:10;13.70;46.20
3868;DHT22;1949;48.152;11.528;2022-11-15T01:08:39;13.70;46.10
3868;DHT22;1949;48.152;11.528;2022-11-15T01:11:09;13.70;46.10
3868;DHT22;1949;48.152;11.528;2022-11-15T01:13:40;13.60;46.00
3868;DHT22;1949;48.152;11.528;2022-11-15T01:16:08;13.60;46.00
3868;DHT22;1949;48.152;11.528;2022-11-15T01:18:36;13.60;46.00
3868;DHT22;1949;48.152;11.528;2022-11-15T01:21:20;13.60;46.00
3868;DHT22;1949;48.152;11.528;2022-11-15T01:23:45;13.60;46.00
3868;DHT22;1949;48.152;11.528;2022-11-15T01:26:14;13.50;45.80
3868;DHT22;1949;48.152;11.528;2022-11-15T01:28:41;13.50;45.90
3868;DHT22;1949;48.152;11.528;2022-11-15T01:31:13;13.50;45.90
3868;DHT22;1949;48.152;11.528;2022-11-15T01:33:40;13.40;45.90
3868;DHT22;1949;48.152;11.528;2022-11-15T01:36:09;13.40;45.90
3868;DHT22;1949;48.152;11.528;2022-11-15T01:38:36;13.40;45.90
3868;DHT22;1949;48.152;11.528;2022-11-15T01:41:03;13.40;46.00
3868;DHT22;1949;48.152;11.528;2022-11-15T01:43:34;13.40;46.00
3868;DHT22;1949;48.152;11.528;2022-11-15T01:48:58;13.30;45.90
3868;DHT22;1949;48.152;11.528;2022-11-15T01:51:30;13.30;46.00
3868;DHT22;1949;48.152;11.528;2022-11-15T01:54:01;13.30;45.90
3868;DHT22;1949;48.152;11.528;2022-11-15T01:56:30;13.30;46.00
3868;DHT22;1949;48.152;11.528;2022-11-15T01:58:58;13.30;45.90
3868;DHT22;1949;48.152;11.528;2022-11-15T02:01:26;13.30;45.90
3868;DHT22;1949;48.152;11.528;2022-11-15T02:04:34;13.30;45.90
3868;DHT22;1949;48.152;11.528;2022-11-15T02:07:03;13.40;46.00
3868;DHT22;1949;48.152;11.528;2022-11-15T02:09:30;13.30;45.80
3868;DHT22;1949;48.152;11.528;2022-11-15T02:11:56;13.30;45.80
3868;DHT22;1949;48.152;11.528;2022-11-15T02:14:30;13.30;45.80
3868;DHT22;1949;48.152;11.528;2022-11-15T02:17:13;13.30;45.80
3868;DHT22;1949;48.152;11.528;2022-11-15T02:20:11;13.30;45.80
3868;DHT22;1949;48.152;11.528;2022-11-15T02:22:51;13.30;45.80
3868;DHT22;1949;48.152;11.528;2022-11-15T02:31:55;13.30;45.70
3868;DHT22;1949;48.152;11.528;2022-11-15T02:36:37;13.30;45.70
3868;DHT22;1949;48.152;11.528;2022-11-15T02:39:47;13.30;45.70
3868;DHT22;1949;48.152;11.528;2022-11-15T02:42:14;13.30;45.70
3868;DHT22;1949;48.152;11.528;2022-11-15T02:45:21;13.30;45.70
3868;DHT22;1949;48.152;11.528;2022-11-15T02:47:52;13.30;46.30
3868;DHT22;1949;48.152;11.528;2022-11-15T02:50:23;13.30;45.70
3868;DHT22;1949;48.152;11.528;2022-11-15T02:52:50;13.20;45.60
3868;DHT22;1949;48.152;11.528;2022-11-15T02:55:37;13.30;45.70
3868;DHT22;1949;48.152;11.528;2022-11-15T03:03:45;13.20;45.60
3868;DHT22;1949;48.152;11.528;2022-11-15T03:06:20;13.20;45.60
3868;DHT22;1949;48.152;11.528;2022-11-15T03:08:53;13.20;45.60
3868;DHT22;1949;48.152;11.528;2022-11-15T03:11:24;13.20;45.50
3868;DHT22;1949;48.152;11.528;2022-11-15T03:16:51;13.20;45.50
3868;DHT22;1949;48.152;11.528;2022-11-15T03:21:51;13.20;45.50
3868;DHT22;1949;48.152;11.528;2022-11-15T03:24:19;13.10;45.40
3868;DHT22;1949;48.152;11.528;2022-11-15T03:26:48;13.20;45.50
3868;DHT22;1949;48.152;11.528;2022-11-15T03:29:27;13.20;45.40
3868;DHT22;1949;48.152;11.528;2022-11-15T03:32:18;13.20;45.40
3868;DHT22;1949;48.152;11.528;2022-11-15T03:37:29;13.10;45.40
3868;DHT22;1949;48.152;11.528;2022-11-15T03:39:58;13.10;45.30
3868;DHT22;1949;48.152;11.528;2022-11-15T03:42:43;13.10;45.30
3868;DHT22;1949;48.152;11.528;2022-11-15T03:45:22;13.10;45.30
3868;DHT22;1949;48.152;11.528;2022-11-15T03:47:53;13.10;45.30
3868;DHT22;1949;48.152;11.528;2022-11-15T03:50:22;13.10;45.30
3868;DHT22;1949;48.152;11.528;2022-11-15T03:52:50;13.10;45.30
3868;DHT22;1949;48.152;11.528;2022-11-15T03:55:19;13.10;45.90
3868;DHT22;1949;48.152;11.528;2022-11-15T03:57:50;13.10;45.30
3868;DHT22;1949;48.152;11.528;2022-11-15T04:00:17;13.10;45.30
3868;DHT22;1949;48.152;11.528;2022-11-15T04:02:43;13.10;45.20
3868;DHT22;1949;48.152;11.528;2022-11-15T04:05:09;13.10;45.20
3868;DHT22;1949;48.152;11.528;2022-11-15T04:07:34;13.10;45.20
3868;DHT22;1949;48.152;11.528;2022-11-15T04:10:00;13.10;45.20
3868;DHT22;1949;48.152;11.528;2022-11-15T04:12:38;13.10;45.10
3868;DHT22;1949;48.152;11.528;2022-11-15T04:15:10;13.10;45.10
3868;DHT22;1949;48.152;11.528;2022-11-15T04:17:38;13.10;45.00
3868;DHT22;1949;48.152;11.528;2022-11-15T04:20:05;13.10;45.10
3868;DHT22;1949;48.152;11.528;2022-11-15T04:22:57;13.10;45.00
3868;DHT22;1949;48.152;11.528;2022-11-15T04:25:42;13.10;45.00
3868;DHT22;1949;48.152;11.528;2022-11-15T04:28:09;13.00;45.00
3868;DHT22;1949;48.152;11.528;2022-11-15T04:30:46;13.00;45.00
3868;DHT22;1949;48.152;11.528;2022-11-15T04:33:11;13.00;45.00
3868;DHT22;1949;48.152;11.528;2022-11-15T04:35:55;13.00;45.00
3868;DHT22;1949;48.152;11.528;2022-11-15T04:38:47;13.00;45.00
3868;DHT22;1949;48.152;11.528;2022-11-15T04:44:31;13.00;44.90
3868;DHT22;1949;48.152;11.528;2022-11-15T04:47:08;13.00;44.90
3868;DHT22;1949;48.152;11.528;2022-11-15T04:49:56;13.00;44.80
3868;DHT22;1949;48.152;11.528;2022-11-15T04:52:24;13.00;44.80
3868;DHT22;1949;48.152;11.528;2022-11-15T04:54:51;13.00;44.80
3868;DHT22;1949;48.152;11.528;2022-11-15T04:57:42;13.00;44.90
3868;DHT22;1949;48.152;11.528;2022-11-15T05:00:13;13.00;44.80
3868;DHT22;1949;48.152;11.528;2022-11-15T05:02:54;12.90;44.80
3868;DHT22;1949;48.152;11.528;2022-11-15T05:05:41;13.00;44.80
3868;DHT22;1949;48.152;11.528;2022-11-15T05:08:08;13.00;44.70
3868;DHT22;1949;48.152;11.528;2022-11-15T05:10:45;12.90;44.70
3868;DHT22;1949;48.152;11.528;2022-11-15T05:13:12;12.90;44.70
3868;DHT22;1949;48.152;11.528;2022-11-15T05:15:39;12.90;44.70
3868;DHT22;1949;48.152;11.528;2022-11-15T05:18:17;12.90;44.70
3868;DHT22;1949;48.152;11.528;2022-11-15T05:20:51;12.90;44.60
3868;DHT22;1949;48.152;11.528;2022-11-15T05:23:19;12.90;44.50
3868;DHT22;1949;48.152;11.528;2022-11-15T05:25:47;12.80;44.60
3868;DHT22;1949;48.152;11.528;2022-11-15T05:28:18;12.80;44.70
3868;DHT22;1949;48.152;11.528;2022-11-15T05:30:49;12.80;44.70
3868;DHT22;1949;48.152;11.528;2022-11-15T05:33:16;12.90;44.80
3868;DHT22;1949;48.152;11.528;2022-11-15T05:35:46;12.90;44.80
3868;DHT22;1949;48.152;11.528;2022-11-15T05:38:33;13.00;44.70
3868;DHT22;1949;48.152;11.528;2022-11-15T05:41:00;12.90;44.60
3868;DHT22;1949;48.152;11.528;2022-11-15T05:43:32;12.90;44.60
3868;DHT22;1949;48.152;11.528;2022-11-15T05:45:59;12.80;44.40
3868;DHT22;1949;48.152;11.528;2022-11-15T05:48:26;12.80;44.40
3868;DHT22;1949;48.152;11.528;2022-11-15T05:50:56;12.80;44.40
3868;DHT22;1949;48.152;11.528;2022-11-15T05:53:30;12.80;44.40
3868;DHT22;1949;48.152;11.528;2022-11-15T05:56:09;12.80;44.40
3868;DHT22;1949;48.152;11.528;2022-11-15T05:58:53;12.80;44.30
3868;DHT22;1949;48.152;11.528;2022-11-15T06:01:21;12.80;44.30
3868;DHT22;1949;48.152;11.528;2022-11-15T06:04:02;12.70;44.30
3868;DHT22;1949;48.152;11.528;2022-11-15T06:06:32;12.70;44.30
3868;DHT22;1949;48.152;11.528;2022-11-15T06:09:02;12.70;44.50
3868;DHT22;1949;48.152;11.528;2022-11-15T06:11:36;12.70;44.40
3868;DHT22;1949;48.152;11.528;2022-11-15T06:14:03;12.70;44.50
3868;DHT22;1949;48.152;11.528;2022-11-15T06:16:28;12.70;44.40
3868;DHT22;1949;48.152;11.528;2022-11-15T06:19:00;12.70;44.40
3868;DHT22;1949;48.152;11.528;2022-11-15T06:21:35;12.70;44.30
3868;DHT22;1949;48.152;11.528;2022-11-15T06:24:03;12.70;44.30
3868;DHT22;1949;48.152;11.528;2022-11-15T06:26:38;12.70;44.30
3868;DHT22;1949;48.152;11.528;2022-11-15T06:29:05;12.70;44.20
3868;DHT22;1949;48.152;11.528;2022-11-15T06:31:30;12.70;44.20
3868;DHT22;1949;48.152;11.528;2022-11-15T06:34:07;12.70;44.20
3868;DHT22;1949;48.152;11.528;2022-11-15T06:36:35;12.70;44.30
3868;DHT22;1949;48.152;11.528;2022-11-15T06:39:05;12.70;44.20
3868;DHT22;1949;48.152;11.528;2022-11-15T06:41:34;12.70;44.20
3868;DHT22;1949;48.152;11.528;2022-11-15T06:44:06;12.70;44.30
3868;DHT22;1949;48.152;11.528;2022-11-15T06:46:40;12.70;44.20
3868;DHT22;1949;48.152;11.528;2022-11-15T06:49:06;12.70;44.10
3868;DHT22;1949;48.152;11.528;2022-11-15T06:51:35;12.70;44.10
3868;DHT22;1949;48.152;11.528;2022-11-15T06:54:05;12.70;44.10
3868;DHT22;1949;48.152;11.528;2022-11-15T06:56:30;12.70;44.00
3868;DHT22;1949;48.152;11.528;2022-11-15T06:59:02;12.70;44.10
3868;DHT22;1949;48.152;11.528;2022-11-15T07:01:31;12.70;44.10
3868;DHT22;1949;48.152;11.528;2022-11-15T07:04:06;12.70;44.10
3868;DHT22;1949;48.152;11.528;2022-11-15T07:06:51;12.70;44.10
3868;DHT22;1949;48.152;11.528;2022-11-15T07:09:31;12.70;44.20
3868;DHT22;1949;48.152;11.528;2022-11-15T07:11:58;12.70;44.10
3868;DHT22;1949;48.152;11.528;2022-11-15T07:14:25;12.80;44.20
3868;DHT22;1949;48.152;11.528;2022-11-15T07:17:04;12.70;44.10
3868;DHT22;1949;48.152;11.528;2022-11-15T07:19:55;12.80;44.20
3868;DHT22;1949;48.152;11.528;2022-11-15T07:22:30;12.80;44.10
3868;DHT22;1949;48.152;11.528;2022-11-15T07:25:02;12.80;44.10
3868;DHT22;1949;48.152;11.528;2022-11-15T07:27:32;12.80;44.00
3868;DHT22;1949;48.152;11.528;2022-11-15T07:30:00;12.80;44.00
3868;DHT22;1949;48.152;11.528;2022-11-15T07:32:25;12.80;44.00
3868;DHT22;1949;48.152;11.528;2022-11-15T07:35:11;12.80;44.00
3868;DHT22;1949;48.152;11.528;2022-11-15T07:37:38;12.80;43.90
3868;DHT22;1949;48.152;11.528;2022-11-15T07:40:08;12.80;43.90
3868;DHT22;1949;48.152;11.528;2022-11-15T07:43:00;12.80;43.90
3868;DHT22;1949;48.152;11.528;2022-11-15T07:45:28;12.80;43.90
3868;DHT22;1949;48.152;11.528;2022-11-15T07:48:05;12.80;43.90
3868;DHT22;1949;48.152;11.528;2022-11-15T07:50:53;12.80;43.90
3868;DHT22;1949;48.152;11.528;2022-11-15T07:53:18;12.90;44.00
3868;DHT22;1949;48.152;11.528;2022-11-15T07:55:48;12.90;44.00
3868;DHT22;1949;48.152;11.528;2022-11-15T07:58:32;12.90;44.00
3868;DHT22;1949;48.152;11.528;2022-11-15T08:01:21;13.00;44.00
3868;DHT22;1949;48.152;11.528;2022-11-15T08:03:56;13.00;44.00
3868;DHT22;1949;48.152;11.528;2022-11-15T08:09:37;13.10;44.00
3868;DHT22;1949;48.152;11.528;2022-11-15T08:12:14;13.10;44.00
3868;DHT22;1949;48.152;11.528;2022-11-15T08:14:49;13.10;43.90
3868;DHT22;1949;48.152;11.528;2022-11-15T08:17:19;13.10;43.90
3868;DHT22;1949;48.152;11.528;2022-11-15T08:19:46;13.20;43.90
3868;DHT22;1949;48.152;11.528;2022-11-15T08:22:48;13.20;43.90
3868;DHT22;1949;48.152;11.528;2022-11-15T08:25:17;13.30;44.00
3868;DHT22;1949;48.152;11.528;2022-11-15T08:27:46;13.30;43.80
3868;DHT22;1949;48.152;11.528;2022-11-15T08:30:24;13.40;43.80
3868;DHT22;1949;48.152;11.528;2022-11-15T08:32:55;13.40;43.80
3868;DHT22;1949;48.152;11.528;2022-11-15T08:35:30;13.40;43.70
3868;DHT22;1949;48.152;11.528;2022-11-15T08:37:57;13.50;43.70
3868;DHT22;1949;48.152;11.528;2022-11-15T08:40:32;13.50;43.70
3868;DHT22;1949;48.152;11.528;2022-11-15T08:42:58;13.60;43.70
3868;DHT22;1949;48.152;11.528;2022-11-15T08:45:33;13.60;43.70
3868;DHT22;1949;48.152;11.528;2022-11-15T08:48:01;13.60;43.60
3868;DHT22;1949;48.152;11.528;2022-11-15T08:50:40;13.70;43.60
3868;DHT22;1949;48.152;11.528;2022-11-15T08:53:15;13.70;43.50
3868;DHT22;1949;48.152;11.528;2022-11-15T08:55:47;13.80;43.50
3868;DHT22;1949;48.152;11.528;2022-11-15T08:58:18;13.80;43.50
3868;DHT22;1949;48.152;11.528;2022-11-15T09:00:58;13.80;43.30
3868;DHT22;1949;48.152;11.528;2022-11-15T09:03:27;13.80;43.30
3868;DHT22;1949;48.152;11.528;2022-11-15T09:05:57;13.80;43.30
3868;DHT22;1949;48.152;11.528;2022-11-15T09:11:37;13.90;43.30
3868;DHT22;1949;48.152;11.528;2022-11-15T09:20:47;14.00;43.40
3868;DHT22;1949;48.152;11.528;2022-11-15T09:23:23;14.00;43.30
3868;DHT22;1949;48.152;11.528;2022-11-15T09:32:32;14.10;43.30
3868;DHT22;1949;48.152;11.528;2022-11-15T09:53:16;14.20;43.20
3868;DHT22;1949;48.152;11.528;2022-11-15T09:56:12;14.30;43.30
3868;DHT22;1949;48.152;11.528;2022-11-15T10:12:03;14.40;43.20
3868;DHT22;1949;48.152;11.528;2022-11-15T10:18:14;14.40;43.20
3868;DHT22;1949;48.152;11.528;2022-11-15T10:24:11;14.50;43.20
3868;DHT22;1949;48.152;11.528;2022-11-15T10:33:43;14.50;43.20
3868;DHT22;1949;48.152;11.528;2022-11-15T10:39:31;14.60;43.30
3868;DHT22;1949;48.152;11.528;2022-11-15T10:45:28;14.70;43.20
3868;DHT22;1949;48.152;11.528;2022-11-15T10:57:55;14.80;43.20
3868;DHT22;1949;48.152;11.528;2022-11-15T11:10:21;15.10;43.00
3868;DHT22;1949;48.152;11.528;2022-11-15T11:16:50;15.30;43.20
3868;DHT22;1949;48.152;11.528;2022-11-15T11:25:24;15.50;42.90
3868;DHT22;1949;48.152;11.528;2022-11-15T11:59:53;16.50;42.70
3868;DHT22;1949;48.152;11.528;2022-11-15T12:05:57;16.70;42.50
3868;DHT22;1949;48.152;11.528;2022-11-15T12:17:44;17.20;42.00
3868;DHT22;1949;48.152;11.528;2022-11-15T12:20:39;17.30;41.80
3868;DHT22;1949;48.152;11.528;2022-11-15T12:30:14;17.50;41.50
3868;DHT22;1949;48.152;11.528;2022-11-15T12:36:05;17.70;41.40
3868;DHT22;1949;48.152;11.528;2022-11-15T12:52:04;17.90;40.90
3868;DHT22;1949;48.152;11.528;2022-11-15T13:02:44;18.20;40.50
3868;DHT22;1949;48.152;11.528;2022-11-15T13:11:48;18.20;40.50
3868;DHT22;1949;48.152;11.528;2022-11-15T13:17:38;18.30;40.60
3868;DHT22;1949;48.152;11.528;2022-11-15T13:25:43;18.30;40.30
3868;DHT22;1949;48.152;11.528;2022-11-15T13:31:42;18.40;40.20
3868;DHT22;1949;48.152;11.528;2022-11-15T13:36:50;18.60;40.40
3868;DHT22;1949;48.152;11.528;2022-11-15T13:39:34;18.70;40.30
3868;DHT22;1949;48.152;11.528;2022-11-15T13:45:24;18.80;40.10
3868;DHT22;1949;48.152;11.528;2022-11-15T13:47:54;18.80;40.00
3868;DHT22;1949;48.152;11.528;2022-11-15T13:50:22;18.90;39.90
3868;DHT22;1949;48.152;11.528;2022-11-15T13:56:11;18.90;39.80
3868;DHT22;1949;48.152;11.528;2022-11-15T14:11:35;18.90;39.80
3868;DHT22;1949;48.152;11.528;2022-11-15T14:20:37;18.70;39.70
3868;DHT22;1949;48.152;11.528;2022-11-15T14:23:32;18.60;39.70
3868;DHT22;1949;48.152;11.528;2022-11-15T14:25:59;18.50;39.90
3868;DHT22;1949;48.152;11.528;2022-11-15T14:35:17;18.20;40.10
3868;DHT22;1949;48.152;11.528;2022-11-15T14:40:33;18.00;40.20
3868;DHT22;1949;48.152;11.528;2022-11-15T14:42:58;17.90;40.20
3868;DHT22;1949;48.152;11.528;2022-11-15T14:45:27;17.90;40.20
3868;DHT22;1949;48.152;11.528;2022-11-15T14:47:52;17.90;40.40
3868;DHT22;1949;48.152;11.528;2022-11-15T14:50:20;17.80;41.10
3868;DHT22;1949;48.152;11.528;2022-11-15T14:52:47;17.80;40.70
3868;DHT22;1949;48.152;11.528;2022-11-15T14:58:35;17.70;40.90
3868;DHT22;1949;48.152;11.528;2022-11-15T15:04:23;17.60;41.20
3868;DHT22;1949;48.152;11.528;2022-11-15T15:06:49;17.50;41.30
3868;DHT22;1949;48.152;11.528;2022-11-15T15:09:14;17.50;41.40
3868;DHT22;1949;48.152;11.528;2022-11-15T15:11:40;17.40;41.50
3868;DHT22;1949;48.152;11.528;2022-11-15T15:14:07;17.40;41.60
3868;DHT22;1949;48.152;11.528;2022-11-15T15:16:50;17.30;41.60
3868;DHT22;1949;48.152;11.528;2022-11-15T15:19:16;17.30;41.80
3868;DHT22;1949;48.152;11.528;2022-11-15T15:25:18;17.20;41.80
3868;DHT22;1949;48.152;11.528;2022-11-15T15:30:47;17.20;42.00
3868;DHT22;1949;48.152;11.528;2022-11-15T15:33:12;17.10;42.10
3868;DHT22;1949;48.152;11.528;2022-11-15T15:35:38;17.00;42.20
3868;DHT22;1949;48.152;11.528;2022-11-15T15:44:48;16.90;42.30
3868;DHT22;1949;48.152;11.528;2022-11-15T15:47:17;16.90;42.40
3868;DHT22;1949;48.152;11.528;2022-11-15T15:53:20;16.80;42.60
3868;DHT22;1949;48.152;11.528;2022-11-15T15:55:46;16.80;42.60
3868;DHT22;1949;48.152;11.528;2022-11-15T15:58:12;16.70;42.70
3868;DHT22;1949;48.152;11.528;2022-11-15T16:01:12;16.70;42.80
3868;DHT22;1949;48.152;11.528;2022-11-15T16:03:38;16.70;42.80
3868;DHT22;1949;48.152;11.528;2022-11-15T16:06:04;16.60;42.90
3868;DHT22;1949;48.152;11.528;2022-11-15T16:08:30;16.60;42.90
3868;DHT22;1949;48.152;11.528;2022-11-15T16:10:56;16.60;42.50
3868;DHT22;1949;48.152;11.528;2022-11-15T16:13:45;16.60;43.00
3868;DHT22;1949;48.152;11.528;2022-11-15T16:16:37;16.60;43.00
3868;DHT22;1949;48.152;11.528;2022-11-15T16:19:32;16.60;43.00
3868;DHT22;1949;48.152;11.528;2022-11-15T16:25:46;16.60;43.10
3868;DHT22;1949;48.152;11.528;2022-11-15T16:28:32;16.50;43.00
3868;DHT22;1949;48.152;11.528;2022-11-15T16:41:04;16.40;43.20
3868;DHT22;1949;48.152;11.528;2022-11-15T16:47:45;16.40;43.40
3868;DHT22;1949;48.152;11.528;2022-11-15T16:50:32;16.40;43.40
3868;DHT22;1949;48.152;11.528;2022-11-15T16:59:26;16.40;43.50
3868;DHT22;1949;48.152;11.528;2022-11-15T17:02:12;16.40;43.50
3868;DHT22;1949;48.152;11.528;2022-11-15T17:04:38;16.30;43.40
3868;DHT22;1949;48.152;11.528;2022-11-15T17:07:08;16.30;43.50
3868;DHT22;1949;48.152;11.528;2022-11-15T17:09:56;16.30;43.60
3868;DHT22;1949;48.152;11.528;2022-11-15T17:12:29;16.30;43.60
3868;DHT22;1949;48.152;11.528;2022-11-15T17:15:15;16.30;43.70
3868;DHT22;1949;48.152;11.528;2022-11-15T17:18:14;16.30;43.70
3868;DHT22;1949;48.152;11.528;2022-11-15T17:20:56;16.30;43.60
3868;DHT22;1949;48.152;11.528;2022-11-15T17:23:25;16.30;43.60
3868;DHT22;1949;48.152;11.528;2022-11-15T17:28:41;16.30;43.80
3868;DHT22;1949;48.152;11.528;2022-11-15T17:31:14;16.20;43.80
3868;DHT22;1949;48.152;11.528;2022-11-15T17:33:49;16.20;43.80
3868;DHT22;1949;48.152;11.528;2022-11-15T17:36:34;16.20;44.00
3868;DHT22;1949;48.152;11.528;2022-11-15T17:39:25;16.20;43.90
3868;DHT22;1949;48.152;11.528;2022-11-15T17:41:53;16.20;43.90
3868;DHT22;1949;48.152;11.528;2022-11-15T17:44:28;16.20;43.90
3868;DHT22;1949;48.152;11.528;2022-11-15T17:46:58;16.20;44.00
3868;DHT22;1949;48.152;11.528;2022-11-15T17:53:03;16.20;43.90
3868;DHT22;1949;48.152;11.528;2022-11-15T17:55:48;16.20;43.90
3868;DHT22;1949;48.152;11.528;2022-11-15T18:01:33;16.10;43.90
3868;DHT22;1949;48.152;11.528;2022-11-15T18:04:26;16.10;44.00
3868;DHT22;1949;48.152;11.528;2022-11-15T18:06:54;16.10;44.00
3868;DHT22;1949;48.152;11.528;2022-11-15T18:09:22;16.10;44.10
3868;DHT22;1949;48.152;11.528;2022-11-15T18:11:52;16.10;44.10
3868;DHT22;1949;48.152;11.528;2022-11-15T18:14:21;16.10;44.10
3868;DHT22;1949;48.152;11.528;2022-11-15T18:16:57;16.10;44.20
3868;DHT22;1949;48.152;11.528;2022-11-15T18:19:26;16.10;44.20
3868;DHT22;1949;48.152;11.528;2022-11-15T18:21:54;16.10;44.20
3868;DHT22;1949;48.152;11.528;2022-11-15T18:24:31;16.00;44.10
3868;DHT22;1949;48.152;11.528;2022-11-15T18:26:59;16.00;44.10
3868;DHT22;1949;48.152;11.528;2022-11-15T18:29:38;16.00;44.10
3868;DHT22;1949;48.152;11.528;2022-11-15T18:32:06;16.00;44.20
3868;DHT22;1949;48.152;11.528;2022-11-15T18:34:40;16.00;44.20
3868;DHT22;1949;48.152;11.528;2022-11-15T18:37:27;16.00;44.20
3868;DHT22;1949;48.152;11.528;2022-11-15T18:39:55;16.00;44.70
3868;DHT22;1949;48.152;11.528;2022-11-15T18:42:20;16.00;44.20
3868;DHT22;1949;48.152;11.528;2022-11-15T18:45:01;16.00;44.20
3868;DHT22;1949;48.152;11.528;2022-11-15T18:47:31;16.00;44.30
3868;DHT22;1949;48.152;11.528;2022-11-15T18:49:59;15.90;44.20
3868;DHT22;1949;48.152;11.528;2022-11-15T18:52:25;15.90;44.20
3868;DHT22;1949;48.152;11.528;2022-11-15T18:54:57;15.90;44.20
3868;DHT22;1949;48.152;11.528;2022-11-15T18:57:34;15.90;44.20
3868;DHT22;1949;48.152;11.528;2022-11-15T19:00:11;15.90;44.30
3868;DHT22;1949;48.152;11.528;2022-11-15T19:03:02;15.90;44.30
3868;DHT22;1949;48.152;11.528;2022-11-15T19:05:28;15.90;44.30
3868;DHT22;1949;48.152;11.528;2022-11-15T19:08:08;15.90;44.30
3868;DHT22;1949;48.152;11.528;2022-11-15T19:10:43;15.90;44.30
3868;DHT22;1949;48.152;11.528;2022-11-15T19:13:14;15.90;44.30
3868;DHT22;1949;48.152;11.528;2022-11-15T19:15:41;15.80;44.80
3868;DHT22;1949;48.152;11.528;2022-11-15T19:18:22;15.80;44.20
3868;DHT22;1949;48.152;11.528;2022-11-15T19:20:56;15.80;44.30
3868;DHT22;1949;48.152;11.528;2022-11-15T19:26:47;15.80;44.30
3868;DHT22;1949;48.152;11.528;2022-11-15T19:29:14;15.70;44.20
3868;DHT22;1949;48.152;11.528;2022-11-15T19:31:40;15.70;44.30
3868;DHT22;1949;48.152;11.528;2022-11-15T19:34:13;15.70;44.40
3868;DHT22;1949;48.152;11.528;2022-11-15T19:36:41;15.70;44.40
3868;DHT22;1949;48.152;11.528;2022-11-15T19:39:12;15.70;44.40
3868;DHT22;1949;48.152;11.528;2022-11-15T19:41:40;15.70;44.40
3868;DHT22;1949;48.152;11.528;2022-11-15T19:44:06;15.70;44.40
3868;DHT22;1949;48.152;11.528;2022-11-15T19:46:33;15.70;44.40
3868;DHT22;1949;48.152;11.528;2022-11-15T19:48:59;15.70;44.50
3868;DHT22;1949;48.152;11.528;2022-11-15T19:51:26;15.70;44.50
3868;DHT22;1949;48.152;11.528;2022-11-15T19:53:54;15.70;44.60
3868;DHT22;1949;48.152;11.528;2022-11-15T19:56:30;15.70;44.50
3868;DHT22;1949;48.152;11.528;2022-11-15T19:58:55;15.60;44.30
3868;DHT22;1949;48.152;11.528;2022-11-15T20:01:30;15.70;44.40
3868;DHT22;1949;48.152;11.528;2022-11-15T20:03:57;15.70;44.50
3868;DHT22;1949;48.152;11.528;2022-11-15T20:06:33;15.60;44.40
3868;DHT22;1949;48.152;11.528;2022-11-15T20:08:59;15.60;44.40
3868;DHT22;1949;48.152;11.528;2022-11-15T20:11:25;15.70;44.50
3868;DHT22;1949;48.152;11.528;2022-11-15T20:13:55;15.60;44.40
3868;DHT22;1949;48.152;11.528;2022-11-15T20:16:22;15.60;44.50
3868;DHT22;1949;48.152;11.528;2022-11-15T20:18:48;15.60;44.30
3868;DHT22;1949;48.152;11.528;2022-11-15T20:21:17;15.60;44.50
3868;DHT22;1949;48.152;11.528;2022-11-15T20:23:44;15.60;44.50
3868;DHT22;1949;48.152;11.528;2022-11-15T20:26:10;15.60;44.40
3868;DHT22;1949;48.152;11.528;2022-11-15T20:28:37;15.60;44.50
3868;DHT22;1949;48.152;11.528;2022-11-15T20:31:05;15.50;44.50
3868;DHT22;1949;48.152;11.528;2022-11-15T20:33:33;15.50;44.50
3868;DHT22;1949;48.152;11.528;2022-11-15T20:36:03;15.50;44.60
3868;DHT22;1949;48.152;11.528;2022-11-15T20:38:33;15.50;44.60
3868;DHT22;1949;48.152;11.528;2022-11-15T20:41:04;15.50;44.60
3868;DHT22;1949;48.152;11.528;2022-11-15T20:43:32;15.60;44.60
3868;DHT22;1949;48.152;11.528;2022-11-15T20:45:57;15.60;44.60
3868;DHT22;1949;48.152;11.528;2022-11-15T20:48:23;15.60;44.60
3868;DHT22;1949;48.152;11.528;2022-11-15T20:50:49;15.60;44.60
3868;DHT22;1949;48.152;11.528;2022-11-15T20:53:18;15.60;44.60
3868;DHT22;1949;48.152;11.528;2022-11-15T20:55:45;15.60;44.50
3868;DHT22;1949;48.152;11.528;2022-11-15T20:58:18;15.60;44.50
3868;DHT22;1949;48.152;11.528;2022-11-15T21:00:44;15.60;44.50
3868;DHT22;1949;48.152;11.528;2022-11-15T21:03:12;15.60;44.50
3868;DHT22;1949;48.152;11.528;2022-11-15T21:05:40;15.60;44.50
3868;DHT22;1949;48.152;11.528;2022-11-15T21:08:17;15.60;44.50
3868;DHT22;1949;48.152;11.528;2022-11-15T21:10:49;15.60;44.50
3868;DHT22;1949;48.152;11.528;2022-11-15T21:13:34;15.60;44.50
3868;DHT22;1949;48.152;11.528;2022-11-15T21:16:00;15.50;44.40
3868;DHT22;1949;48.152;11.528;2022-11-15T21:18:33;15.50;44.50
3868;DHT22;1949;48.152;11.528;2022-11-15T21:21:06;15.50;44.50
3868;DHT22;1949;48.152;11.528;2022-11-15T21:23:32;15.50;44.50
3868;DHT22;1949;48.152;11.528;2022-11-15T21:26:05;15.50;44.50
3868;DHT22;1949;48.152;11.528;2022-11-15T21:28:32;15.50;44.50
3868;DHT22;1949;48.152;11.528;2022-11-15T21:30:59;15.50;45.00
3868;DHT22;1949;48.152;11.528;2022-11-15T21:33:25;15.50;44.40
3868;DHT22;1949;48.152;11.528;2022-11-15T21:35:55;15.50;44.50
3868;DHT22;1949;48.152;11.528;2022-11-15T21:38:24;15.40;44.50
3868;DHT22;1949;48.152;11.528;2022-11-15T21:40:55;15.40;44.50
3868;DHT22;1949;48.152;11.528;2022-11-15T21:43:21;15.40;44.50